createdAt,value
2023-03-15T00:02:19.262Z,3.92
2023-03-15T00:07:25.816Z,3.84
2023-03-15T00:12:32.009Z,3.82
2023-03-15T00:17:35.775Z,3.86
2023-03-15T00:22:39.539Z,3.82
2023-03-15T00:27:44.556Z,3.74
2023-03-15T00:32:48.361Z,3.68
2023-03-15T00:37:56.105Z,3.77
2023-03-15T00:43:01.186Z,3.81
2023-03-15T00:48:06.122Z,3.83
2023-03-15T00:53:11.549Z,3.74
2023-03-15T00:58:16.578Z,3.44
2023-03-15T01:03:20.860Z,3.56
2023-03-15T01:08:25.385Z,3.42
2023-03-15T01:13:31.020Z,3.55
2023-03-15T01:18:34.949Z,3.51
2023-03-15T01:23:39.283Z,3.56
2023-03-15T01:28:44.409Z,3.54
2023-03-15T01:33:48.509Z,3.73
2023-03-15T01:38:53.846Z,3.77
2023-03-15T01:44:00.683Z,3.83
2023-03-15T01:49:08.659Z,3.92
2023-03-15T01:54:18.973Z,3.96
2023-03-15T01:59:28.396Z,3.97
2023-03-15T02:04:37.318Z,3.63
2023-03-15T02:09:49.641Z,3.67
2023-03-15T02:14:55.910Z,3.72
2023-03-15T02:20:12.484Z,3.59
2023-03-15T02:25:27.493Z,3.79
2023-03-15T02:30:32.746Z,3.72
2023-03-15T02:35:36.794Z,3.74
2023-03-15T02:40:41.236Z,3.57
2023-03-15T02:45:47.113Z,3.34
2023-03-15T02:50:50.870Z,3.31
2023-03-15T02:55:54.614Z,3.27
2023-03-15T03:00:59.765Z,3.13
2023-03-15T03:06:03.605Z,3.18
2023-03-15T03:11:08.153Z,3.28
2023-03-15T03:16:14.014Z,3.12
2023-03-15T03:21:19.262Z,3.11
2023-03-15T03:26:28.052Z,3.05
2023-03-15T03:31:34.487Z,3.03
2023-03-15T03:36:38.682Z,2.98
2023-03-15T03:41:42.797Z,2.90
2023-03-15T03:46:50.087Z,2.84
2023-03-15T03:51:54.135Z,2.77
2023-03-15T03:56:58.506Z,2.69
2023-03-15T04:02:05.633Z,2.65
2023-03-15T04:07:10.889Z,2.63
2023-03-15T04:12:15.918Z,2.56
2023-03-15T04:17:23.308Z,2.43
2023-03-15T04:22:27.246Z,2.47
2023-03-15T04:27:32.116Z,2.45
2023-03-15T04:32:37.637Z,2.40
2023-03-15T04:37:42.576Z,2.42
2023-03-15T04:42:47.205Z,2.21
2023-03-15T04:47:53.296Z,2.21
2023-03-15T04:52:59.178Z,2.32
2023-03-15T04:58:03.364Z,2.34
2023-03-15T05:03:08.582Z,2.36
2023-03-15T05:08:13.943Z,2.32
2023-03-15T05:13:18.929Z,2.27
2023-03-15T05:18:24.724Z,2.25
2023-03-15T05:23:28.909Z,2.19
2023-03-15T05:28:33.751Z,2.13
2023-03-15T05:33:46.698Z,2.10
2023-03-15T05:38:51.775Z,2.06
2023-03-15T05:43:56.126Z,2.01
2023-03-15T05:49:01.452Z,1.92
2023-03-15T05:54:05.773Z,1.89
2023-03-15T05:59:09.736Z,1.93
2023-03-15T06:04:15.445Z,1.99
2023-03-15T06:09:19.515Z,2.04
2023-03-15T06:14:23.368Z,2.10
2023-03-15T06:19:28.912Z,2.29
2023-03-15T06:24:33.055Z,2.23
2023-03-15T06:29:36.973Z,2.33
2023-03-15T06:34:44.307Z,2.40
2023-03-15T06:39:51.074Z,2.45
2023-03-15T06:44:55.305Z,2.29
2023-03-15T06:50:00.529Z,2.44
2023-03-15T06:55:04.595Z,2.56
2023-03-15T07:00:11.290Z,2.69
2023-03-15T07:05:16.549Z,2.74
2023-03-15T07:10:20.440Z,2.85
2023-03-15T07:15:24.377Z,2.99
2023-03-15T07:20:29.407Z,3.11
2023-03-15T07:25:37.645Z,3.25
2023-03-15T07:30:54.006Z,3.29
2023-03-15T07:35:59.186Z,3.34
2023-03-15T07:41:03.842Z,3.36
2023-03-15T07:46:07.954Z,3.41
2023-03-15T07:51:13.254Z,3.52
2023-03-15T07:56:17.269Z,3.61
2023-03-15T08:01:21.626Z,3.70
2023-03-15T08:06:26.871Z,3.88
2023-03-15T08:11:30.822Z,4.02
2023-03-15T08:16:34.602Z,4.10
2023-03-15T08:21:39.805Z,4.22
2023-03-15T08:26:43.729Z,4.35
2023-03-15T08:31:47.539Z,4.53
2023-03-15T08:36:52.707Z,4.64
2023-03-15T08:41:56.521Z,4.79
2023-03-15T08:47:00.286Z,4.93
2023-03-15T08:52:06.002Z,5.05
2023-03-15T08:57:09.905Z,5.15
2023-03-15T09:02:13.794Z,5.24
2023-03-15T09:07:19.036Z,5.34
2023-03-15T09:12:23.256Z,5.57
2023-03-15T09:17:27.020Z,5.82
2023-03-15T09:22:38.884Z,6.13
2023-03-15T09:27:42.976Z,6.38
2023-03-15T09:32:46.846Z,6.51
2023-03-15T09:37:52.612Z,6.64
2023-03-15T09:43:16.813Z,6.75
2023-03-15T09:48:26.016Z,6.96
2023-03-15T09:53:38.155Z,7.07
2023-03-15T09:58:42.192Z,6.99
2023-03-15T10:03:50.045Z,7.44
2023-03-15T10:08:58.442Z,7.62
2023-03-15T10:14:19.341Z,8.12
2023-03-15T10:19:32.705Z,8.37
2023-03-15T10:24:46.173Z,9.23
2023-03-15T10:29:51.603Z,9.87
2023-03-15T10:34:58.753Z,9.25
2023-03-15T10:40:07.902Z,9.11
2023-03-15T10:45:21.922Z,8.82
2023-03-15T10:50:28.793Z,8.82
2023-03-15T10:55:36.959Z,10.45
2023-03-15T11:00:49.263Z,12.27
2023-03-15T11:05:55.643Z,13.37
2023-03-15T11:11:01.150Z,13.52
2023-03-15T11:16:08.335Z,13.67
2023-03-15T11:21:15.336Z,12.03
2023-03-15T11:26:32.366Z,10.99
2023-03-15T11:31:37.492Z,11.11
2023-03-15T11:36:46.277Z,11.13
2023-03-15T11:41:57.809Z,13.26
2023-03-15T11:47:06.061Z,14.87
2023-03-15T11:52:10.090Z,15.17
2023-03-15T11:57:40.868Z,16.34
2023-03-15T12:02:50.948Z,17.71
2023-03-15T12:08:16.919Z,17.61
2023-03-15T12:13:25.440Z,17.88
2023-03-15T12:18:34.066Z,18.43
2023-03-15T12:23:44.125Z,17.05
2023-03-15T12:28:54.795Z,18.07
2023-03-15T12:34:01.344Z,18.93
2023-03-15T12:39:22.890Z,19.10
2023-03-15T12:44:40.043Z,18.31
2023-03-15T12:49:45.619Z,18.93
2023-03-15T12:54:52.875Z,20.11
2023-03-15T13:00:01.717Z,20.44
2023-03-15T13:05:18.083Z,19.75
2023-03-15T13:10:39.474Z,19.78
2023-03-15T13:15:55.074Z,19.77
2023-03-15T13:21:11.607Z,19.16
2023-03-15T13:26:35.142Z,19.93
2023-03-15T13:31:40.447Z,19.95
2023-03-15T13:36:47.772Z,19.96
2023-03-15T13:41:57.953Z,19.69
2023-03-15T13:47:03.301Z,18.79
2023-03-15T13:52:12.284Z,19.42
2023-03-15T13:57:18.608Z,19.52
2023-03-15T14:02:26.788Z,19.00
2023-03-15T14:07:37.712Z,18.51
2023-03-15T14:12:41.545Z,18.02
2023-03-15T14:17:58.710Z,18.00
2023-03-15T14:23:04.985Z,17.58
2023-03-15T14:28:15.842Z,16.98
2023-03-15T14:33:33.034Z,15.75
2023-03-15T14:38:38.900Z,16.51
2023-03-15T14:43:42.650Z,16.89
2023-03-15T14:48:48.052Z,17.65
2023-03-15T14:53:54.465Z,16.77
2023-03-15T14:58:58.190Z,15.98
2023-03-15T15:04:04.831Z,15.21
2023-03-15T15:09:08.662Z,14.93
2023-03-15T15:14:14.451Z,14.50
2023-03-15T15:19:19.509Z,15.36
2023-03-15T15:24:26.968Z,15.35
2023-03-15T15:29:30.958Z,14.53
2023-03-15T15:34:37.201Z,14.21
2023-03-15T15:39:41.660Z,14.47
2023-03-15T15:44:45.976Z,14.57
2023-03-15T15:49:51.086Z,14.66
2023-03-15T15:54:54.867Z,13.94
2023-03-15T15:59:58.769Z,14.08
2023-03-15T16:05:04.044Z,13.72
2023-03-15T16:10:09.013Z,13.50
2023-03-15T16:15:13.952Z,12.98
2023-03-15T16:20:19.780Z,13.21
2023-03-15T16:25:28.483Z,12.90
2023-03-15T16:30:33.472Z,12.82
2023-03-15T16:35:39.387Z,12.30
2023-03-15T16:40:45.534Z,11.67
2023-03-15T16:45:49.309Z,11.46
2023-03-15T16:50:55.343Z,11.65
2023-03-15T16:55:59.270Z,11.52
2023-03-15T17:01:03.042Z,11.42
2023-03-15T17:06:17.883Z,10.77
2023-03-15T17:11:22.887Z,10.87
2023-03-15T17:16:27.543Z,11.11
2023-03-15T17:21:36.092Z,10.94
2023-03-15T17:26:42.172Z,11.06
2023-03-15T17:31:46.230Z,10.61
2023-03-15T17:36:52.188Z,10.75
2023-03-15T17:41:55.973Z,10.64
2023-03-15T17:47:01.526Z,10.15
2023-03-15T17:52:14.290Z,10.47
2023-03-15T17:57:18.708Z,10.24
2023-03-15T18:02:23.038Z,10.41
2023-03-15T18:07:31.001Z,10.36
2023-03-15T18:12:35.942Z,10.12
2023-03-15T18:17:40.963Z,10.15
2023-03-15T18:22:46.870Z,10.05
2023-03-15T18:27:51.717Z,10.02
2023-03-15T18:32:56.751Z,9.97
2023-03-15T18:38:02.214Z,9.77
2023-03-15T18:43:06.375Z,9.74
2023-03-15T18:48:10.196Z,9.59
2023-03-15T18:53:15.256Z,9.54
2023-03-15T18:58:19.051Z,9.57
2023-03-15T19:03:22.911Z,9.33
2023-03-15T19:08:28.098Z,9.40
2023-03-15T19:13:31.849Z,9.33
2023-03-15T19:18:35.759Z,9.11
2023-03-15T19:23:40.841Z,9.03
2023-03-15T19:28:44.854Z,9.08
2023-03-15T19:33:48.577Z,8.74
2023-03-15T19:38:53.645Z,8.68
2023-03-15T19:43:57.657Z,8.62
2023-03-15T19:49:02.297Z,8.65
2023-03-15T19:54:07.709Z,8.48
2023-03-15T19:59:11.390Z,8.36
2023-03-15T20:04:15.115Z,8.21
2023-03-15T20:09:20.776Z,8.28
2023-03-15T20:14:24.887Z,8.15
2023-03-15T20:19:28.822Z,8.16
2023-03-15T20:24:34.033Z,8.08
2023-03-15T20:29:38.003Z,7.94
2023-03-15T20:34:42.371Z,7.90
2023-03-15T20:39:47.903Z,7.84
2023-03-15T20:44:52.933Z,7.92
2023-03-15T20:49:56.761Z,7.75
2023-03-15T20:55:03.556Z,7.75
2023-03-15T21:00:12.932Z,7.69
2023-03-15T21:05:21.134Z,7.66
2023-03-15T21:10:27.344Z,7.40
2023-03-15T21:15:32.176Z,7.24
2023-03-15T21:20:37.016Z,7.30
2023-03-15T21:25:43.052Z,7.26
2023-03-15T21:30:52.710Z,7.17
2023-03-15T21:35:59.378Z,7.04
2023-03-15T21:41:10.321Z,6.92
2023-03-15T21:46:17.099Z,6.72
2023-03-15T21:51:22.371Z,6.64
2023-03-15T21:56:27.806Z,6.48
2023-03-15T22:01:31.561Z,6.57
2023-03-15T22:06:35.296Z,6.41
2023-03-15T22:11:40.368Z,6.45
2023-03-15T22:16:44.353Z,6.48
2023-03-15T22:21:48.159Z,6.39
2023-03-15T22:26:53.955Z,6.35
2023-03-15T22:31:57.728Z,6.35
2023-03-15T22:37:02.614Z,6.28
2023-03-15T22:42:08.048Z,6.18
2023-03-15T22:47:11.853Z,6.24
2023-03-15T22:52:15.692Z,6.13
2023-03-15T22:57:20.770Z,6.13
2023-03-15T23:02:24.881Z,6.14
2023-03-15T23:07:28.571Z,6.16
2023-03-15T23:12:36.299Z,6.09
2023-03-15T23:17:45.780Z,6.17
2023-03-15T23:22:50.285Z,6.11
2023-03-15T23:27:56.514Z,6.00
2023-03-15T23:33:00.743Z,6.01
2023-03-15T23:38:04.444Z,5.94
2023-03-15T23:43:09.518Z,5.93
2023-03-15T23:48:13.779Z,5.90
2023-03-15T23:53:17.536Z,5.92
2023-03-15T23:58:23.033Z,5.79
